Time;durP1;ratioP1;P1;durP2;ratioP2;P2;SDS_P1;SDS_P2;PMS_P1;PMS_P2;Temp;Humidity;BMP_temperature;BMP_pressure;BME280_temperature;BME280_humidity;BME280_pressure;Samples;Min_cycle;Max_cycle;Signal;HPM_P1;HPM_P2
2022/07/19 00:00:46;;;;;;;;;;;23.90;65.60;;;;;;5056173;28;20430;-60
2022/07/19 00:03:13;;;;;;;3.45;1.75;;;23.90;65.80;;;;;;5053986;28;19905;-59
2022/07/19 00:05:38;;;;;;;3.72;2.35;;;23.80;65.90;;;;;;5055545;28;20043;-58
2022/07/19 00:08:04;;;;;;;5.38;2.17;;;23.70;65.80;;;;;;5055375;28;20107;-58
2022/07/19 00:10:30;;;;;;;;;;;23.70;65.80;;;;;;5054261;28;20036;-59
2022/07/19 00:12:55;;;;;;;5.40;1.83;;;23.60;65.80;;;;;;5055036;28;19913;-59
2022/07/19 00:15:21;;;;;;;3.15;1.73;;;23.60;66.10;;;;;;5055770;28;20109;-57
2022/07/19 00:17:47;;;;;;;;;;;23.60;66.60;;;;;;5055939;28;20025;-59
2022/07/19 00:20:19;;;;;;;2.72;1.33;;;23.50;66.10;;;;;;5055298;28;19912;-59
2022/07/19 00:22:45;;;;;;;2.55;1.58;;;23.40;66.70;;;;;;5054071;28;20047;-61
2022/07/19 00:25:12;;;;;;;4.35;1.60;;;23.30;66.50;;;;;;5054827;28;20032;-59
2022/07/19 00:27:37;;;;;;;;;;;23.20;66.70;;;;;;5055399;28;20028;-58
2022/07/19 00:30:05;;;;;;;3.97;2.00;;;23.10;67.10;;;;;;5055073;28;19905;-60
2022/07/19 00:32:31;;;;;;;2.35;1.67;;;23.00;67.20;;;;;;5054819;28;20059;-59
2022/07/19 00:34:57;;;;;;;3.30;1.73;;;23.00;67.40;;;;;;5054951;28;20029;-58
2022/07/19 00:37:22;;;;;;;4.03;1.60;;;22.90;67.20;;;;;;5055265;28;20478;-59
2022/07/19 00:39:48;;;;;;;;;;;22.90;67.30;;;;;;5055556;28;20037;-60
2022/07/19 00:42:15;;;;;;;4.30;1.88;;;22.80;67.50;;;;;;5054730;28;19909;-56
2022/07/19 00:44:40;;;;;;;2.72;1.50;;;22.70;67.70;;;;;;5053796;28;20025;-58
2022/07/19 00:47:06;;;;;;;3.72;1.70;;;22.60;67.90;;;;;;5054806;28;20071;-60
2022/07/19 00:49:32;;;;;;;;;;;22.50;68.20;;;;;;5055017;28;20025;-58
2022/07/19 00:51:59;;;;;;;3.78;1.80;;;22.40;68.40;;;;;;5054924;28;20265;-56
2022/07/19 00:54:25;;;;;;;4.60;2.08;;;22.40;68.70;;;;;;5056326;28;20025;-59
2022/07/19 00:56:52;;;;;;;5.82;1.90;;;22.30;69.00;;;;;;5057684;28;20021;-58
2022/07/19 00:59:19;;;;;;;3.20;1.85;;;22.20;69.30;;;;;;5057683;28;20040;-57
2022/07/19 01:01:44;;;;;;;;;;;22.20;69.20;;;;;;5056956;28;20025;-57
2022/07/19 01:04:11;;;;;;;2.42;1.63;;;22.10;69.00;;;;;;5055505;28;19916;-55
2022/07/19 01:06:37;;;;;;;3.50;1.80;;;22.10;69.00;;;;;;5055676;28;20029;-58
2022/07/19 01:09:03;;;;;;;;;;;22.10;69.20;;;;;;5055288;28;20487;-59
2022/07/19 01:11:29;;;;;;;5.47;1.70;;;22.10;69.50;;;;;;5054182;28;19995;-59
2022/07/19 01:13:54;;;;;;;2.70;1.55;;;22.00;69.60;;;;;;5054326;28;20067;-60
2022/07/19 01:16:20;;;;;;;4.18;1.50;;;21.90;69.70;;;;;;5054571;28;20036;-60
2022/07/19 01:18:45;;;;;;;2.75;1.30;;;21.90;69.80;;;;;;5053944;28;20029;-60
2022/07/19 01:21:22;;;;;;;3.85;1.88;;;21.90;70.00;;;;;;5054330;28;20370;-60
2022/07/19 01:23:48;;;;;;;4.18;1.95;;;21.70;70.30;;;;;;5053738;28;20083;-58
2022/07/19 01:26:15;;;;;;;;;;;21.70;70.50;;;;;;5053177;28;20051;-60
2022/07/19 01:28:41;;;;;;;4.05;1.80;;;21.70;70.60;;;;;;5053820;28;20357;-58
2022/07/19 01:31:06;;;;;;;3.08;1.85;;;21.60;70.60;;;;;;5053971;28;20037;-58
2022/07/19 01:33:41;;;;;;;5.00;1.95;;;21.60;70.60;;;;;;5055156;28;20041;-62
2022/07/19 01:36:07;;;;;;;6.68;1.50;;;21.60;70.70;;;;;;5056063;28;20481;-62
2022/07/19 01:38:32;;;;;;;2.70;1.92;;;21.60;70.80;;;;;;5055667;28;20059;-63
2022/07/19 01:40:58;;;;;;;3.03;1.80;;;21.60;70.80;;;;;;5055310;28;20068;-62
2022/07/19 01:43:24;;;;;;;;;;;21.50;70.90;;;;;;5054877;28;20045;-62
2022/07/19 01:45:49;;;;;;;3.22;1.70;;;21.40;71.20;;;;;;5055522;28;19927;-60
2022/07/19 01:48:15;;;;;;;4.15;1.95;;;21.40;71.30;;;;;;5055415;28;20024;-60
2022/07/19 01:50:40;;;;;;;4.55;1.70;;;21.40;71.20;;;;;;5054611;28;20029;-60
2022/07/19 01:53:06;;;;;;;4.70;1.98;;;21.30;71.20;;;;;;5054721;28;20029;-61
2022/07/19 01:55:32;;;;;;;5.40;1.88;;;21.30;71.20;;;;;;5054610;28;20033;-61
2022/07/19 01:57:57;;;;;;;4.65;2.03;;;21.40;70.90;;;;;;5055037;28;20025;-62
2022/07/19 02:00:23;;;;;;;3.08;1.73;;;21.40;70.90;;;;;;5054879;28;20029;-63
2022/07/19 02:02:48;;;;;;;8.85;2.80;;;21.40;70.70;;;;;;5054732;28;20056;-61
2022/07/19 02:05:14;;;;;;;3.15;1.60;;;21.40;70.60;;;;;;5054790;28;20025;-62
2022/07/19 02:07:39;;;;;;;4.00;1.50;;;21.50;70.50;;;;;;5054549;28;20028;-62
2022/07/19 02:10:06;;;;;;;3.20;1.50;;;21.50;70.40;;;;;;5054845;28;20032;-61
2022/07/19 02:12:32;;;;;;;9.55;2.10;;;21.50;70.30;;;;;;5054420;28;20053;-62
2022/07/19 02:14:57;;;;;;;3.03;1.80;;;21.50;70.20;;;;;;5055653;28;20028;-61
2022/07/19 02:17:23;;;;;;;4.47;2.03;;;21.50;69.80;;;;;;5053987;28;20033;-61
2022/07/19 02:19:48;;;;;;;2.60;1.50;;;21.60;69.90;;;;;;5056064;28;20101;-61
2022/07/19 02:22:14;;;;;;;6.07;1.75;;;21.60;69.80;;;;;;5055090;28;20028;-61
2022/07/19 02:24:42;;;;;;;2.58;1.75;;;21.60;69.60;;;;;;5053777;28;20496;-61
2022/07/19 02:27:11;;;;;;;2.40;1.92;;;21.70;69.10;;;;;;5053407;28;20021;-60
2022/07/19 02:29:36;;;;;;;4.55;2.20;;;21.80;68.50;;;;;;5053558;28;20025;-61
2022/07/19 02:32:02;;;;;;;5.22;1.73;;;21.80;68.30;;;;;;5053974;28;20029;-62
2022/07/19 02:34:27;;;;;;;3.60;1.50;;;21.80;67.80;;;;;;5054244;28;20104;-64
2022/07/19 02:36:53;;;;;;;4.47;1.90;;;21.90;67.70;;;;;;5054553;28;20021;-62
2022/07/19 02:39:18;;;;;;;3.88;2.05;;;21.90;67.50;;;;;;5054687;28;20036;-63
2022/07/19 02:41:44;;;;;;;2.65;1.98;;;22.00;67.20;;;;;;5052946;28;20079;-61
2022/07/19 02:44:10;;;;;;;2.65;1.58;;;22.00;66.90;;;;;;5054895;28;20056;-60
2022/07/19 02:46:36;;;;;;;4.45;1.67;;;22.00;66.90;;;;;;5054444;28;20052;-61
2022/07/19 02:49:01;;;;;;;2.88;1.60;;;22.00;66.60;;;;;;5053736;28;20060;-61
2022/07/19 02:51:27;;;;;;;2.75;1.75;;;22.00;66.80;;;;;;5053668;28;20391;-61
2022/07/19 02:53:53;;;;;;;3.42;1.80;;;22.00;66.90;;;;;;5054529;28;20389;-61
2022/07/19 02:56:18;;;;;;;3.33;1.73;;;22.00;67.20;;;;;;5054911;28;20053;-61
2022/07/19 02:58:44;;;;;;;3.78;1.73;;;22.00;68.00;;;;;;5054915;28;20496;-61
2022/07/19 03:01:09;;;;;;;3.75;2.13;;;22.00;67.70;;;;;;5054513;28;20029;-62
2022/07/19 03:03:44;;;;;;;4.47;1.85;;;21.90;67.90;;;;;;5054103;28;20401;-59
2022/07/19 03:06:11;;;;;;;5.60;2.05;;;21.90;68.20;;;;;;5053606;28;20041;-62
2022/07/19 03:08:37;;;;;;;2.97;1.70;;;21.80;68.60;;;;;;5055021;28;20071;-62
2022/07/19 03:11:03;;;;;;;5.35;1.88;;;21.70;68.70;;;;;;5057674;28;20025;-61
2022/07/19 03:13:28;;;;;;;4.95;2.42;;;21.60;68.90;;;;;;5057237;28;20033;-61
2022/07/19 03:15:54;;;;;;;4.28;2.63;;;21.50;69.10;;;;;;5057185;28;20056;-62
2022/07/19 03:18:19;;;;;;;2.47;1.60;;;21.50;69.40;;;;;;5057046;28;20040;-64
2022/07/19 03:20:45;;;;;;;2.42;1.58;;;21.40;69.60;;;;;;5057434;28;20029;-60
2022/07/19 03:23:11;;;;;;;4.63;1.50;;;21.40;69.90;;;;;;5057757;28;20510;-62
2022/07/19 03:25:36;;;;;;;3.28;1.80;;;21.30;70.00;;;;;;5057564;28;20500;-64
2022/07/19 03:28:02;;;;;;;4.13;1.85;;;21.30;70.20;;;;;;5058230;28;20040;-63
2022/07/19 03:30:28;;;;;;;;;;;21.20;70.40;;;;;;5058738;28;20449;-62
2022/07/19 03:32:53;;;;;;;2.97;1.85;;;21.20;70.50;;;;;;5057590;28;19974;-61
2022/07/19 03:35:19;;;;;;;3.05;1.95;;;21.20;70.90;;;;;;5057357;28;20096;-63
2022/07/19 03:37:46;;;;;;;5.45;2.05;;;21.10;71.00;;;;;;5057967;28;20025;-63
2022/07/19 03:40:12;;;;;;;4.60;1.92;;;21.00;71.40;;;;;;5057482;28;20040;-60
2022/07/19 03:42:38;;;;;;;4.25;2.03;;;20.90;71.70;;;;;;5056396;28;20116;-63
2022/07/19 03:45:04;;;;;;;2.70;1.80;;;20.80;72.00;;;;;;5056756;28;20060;-62
2022/07/19 03:47:30;;;;;;;4.03;1.95;;;20.70;72.40;;;;;;5054647;28;20035;-61
2022/07/19 03:49:57;;;;;;;3.50;1.83;;;20.60;72.60;;;;;;5056087;28;20112;-62
2022/07/19 03:52:23;;;;;;;2.55;1.80;;;20.60;72.80;;;;;;5056746;28;20021;-62
2022/07/19 03:54:48;;;;;;;4.18;1.70;;;20.60;72.90;;;;;;5055389;28;20070;-62
2022/07/19 03:57:14;;;;;;;5.30;1.77;;;20.50;72.90;;;;;;5056573;28;20024;-62
2022/07/19 03:59:39;;;;;;;3.60;1.98;;;20.50;73.00;;;;;;5056569;28;20124;-63
2022/07/19 04:02:05;;;;;;;2.88;1.92;;;20.50;73.10;;;;;;5056108;28;20029;-61
2022/07/19 04:04:31;;;;;;;2.75;2.13;;;20.50;73.10;;;;;;5055382;28;20028;-61
2022/07/19 04:06:57;;;;;;;3.20;1.67;;;20.60;73.30;;;;;;5057004;28;20025;-62
2022/07/19 04:09:23;;;;;;;3.42;2.22;;;20.60;73.00;;;;;;5056973;28;20028;-62
2022/07/19 04:11:49;;;;;;;3.17;1.80;;;20.60;73.10;;;;;;5056948;28;20040;-63
2022/07/19 04:14:14;;;;;;;3.75;2.17;;;20.60;73.10;;;;;;5055492;28;20025;-61
2022/07/19 04:16:40;;;;;;;4.63;1.90;;;20.60;73.10;;;;;;5057681;28;20040;-62
2022/07/19 04:19:06;;;;;;;3.08;1.80;;;20.50;73.30;;;;;;5056560;28;20432;-62
2022/07/19 04:21:31;;;;;;;4.90;1.88;;;20.50;73.30;;;;;;5055896;28;20029;-62
2022/07/19 04:23:57;;;;;;;4.78;1.90;;;20.60;73.40;;;;;;5057663;28;20032;-61
2022/07/19 04:26:23;;;;;;;2.65;1.85;;;20.60;73.40;;;;;;5057303;28;20044;-61
2022/07/19 04:28:48;;;;;;;4.45;1.98;;;20.60;73.40;;;;;;5056660;28;20025;-62
2022/07/19 04:31:17;;;;;;;5.57;2.83;;;20.60;73.50;;;;;;5055891;28;20147;-64
2022/07/19 04:33:43;;;;;;;5.22;2.10;;;20.50;73.90;;;;;;5054663;28;20033;-63
2022/07/19 04:36:08;;;;;;;4.25;2.00;;;20.50;74.10;;;;;;5055342;28;20078;-64
2022/07/19 04:38:34;;;;;;;3.17;2.60;;;20.40;74.30;;;;;;5055185;28;20029;-64
2022/07/19 04:41:00;;;;;;;5.15;2.30;;;20.40;74.60;;;;;;5054809;28;20432;-64
2022/07/19 04:43:26;;;;;;;6.25;2.60;;;20.40;74.70;;;;;;5054482;28;20033;-64
2022/07/19 04:45:51;;;;;;;4.78;2.47;;;20.30;74.90;;;;;;5054487;28;20016;-64
2022/07/19 04:48:17;;;;;;;5.43;2.20;;;20.30;75.10;;;;;;5054890;28;20074;-65
2022/07/19 04:50:42;;;;;;;4.68;1.90;;;20.30;75.30;;;;;;5055046;28;20025;-65
2022/07/19 04:53:08;;;;;;;4.45;2.03;;;20.30;75.50;;;;;;5054503;28;20109;-65
2022/07/19 04:55:36;;;;;;;6.13;2.53;;;20.30;75.60;;;;;;5054935;28;20025;-64
2022/07/19 04:58:01;;;;;;;6.18;2.00;;;20.30;75.70;;;;;;5054549;28;20029;-64
2022/07/19 05:00:27;;;;;;;3.63;2.10;;;20.40;75.90;;;;;;5055224;28;20450;-65
2022/07/19 05:02:54;;;;;;;4.07;1.88;;;20.40;75.90;;;;;;5053251;28;20036;-65
2022/07/19 05:05:20;;;;;;;4.68;2.05;;;20.40;76.20;;;;;;5055284;28;20021;-64
2022/07/19 05:07:45;;;;;;;6.70;2.20;;;20.40;76.30;;;;;;5054614;28;20446;-64
2022/07/19 05:10:11;;;;;;;6.43;1.92;;;20.50;76.40;;;;;;5055588;28;20037;-66
2022/07/19 05:12:37;;;;;;;3.25;1.80;;;20.50;76.30;;;;;;5054783;28;20025;-64
2022/07/19 05:15:04;;;;;;;6.15;2.22;;;20.60;76.20;;;;;;5054020;28;20441;-63
2022/07/19 05:17:30;;;;;;;3.92;2.33;;;20.70;76.10;;;;;;5056919;28;20082;-67
2022/07/19 05:19:56;;;;;;;5.65;2.55;;;20.80;76.00;;;;;;5056379;28;20509;-63
2022/07/19 05:22:23;;;;;;;7.07;2.58;;;20.90;76.00;;;;;;5054742;28;20037;-63
2022/07/19 05:24:49;;;;;;;3.13;2.08;;;21.00;75.50;;;;;;5054623;28;20416;-63
2022/07/19 05:27:15;;;;;;;10.00;2.60;;;21.10;75.20;;;;;;5054224;28;20558;-64
2022/07/19 05:29:40;;;;;;;5.65;2.38;;;21.20;75.10;;;;;;5054104;28;20056;-62
2022/07/19 05:32:06;;;;;;;2.85;1.73;;;21.20;74.70;;;;;;5055323;28;20033;-61
2022/07/19 05:34:32;;;;;;;7.40;2.42;;;21.30;74.40;;;;;;5056071;28;20033;-62
2022/07/19 05:36:57;;;;;;;6.90;2.55;;;21.40;74.40;;;;;;5055278;28;20469;-63
2022/07/19 05:39:23;;;;;;;7.65;2.50;;;21.50;74.00;;;;;;5055552;28;20108;-63
2022/07/19 05:41:48;;;;;;;4.95;2.10;;;21.60;73.90;;;;;;5056096;28;20061;-61
2022/07/19 05:44:14;;;;;;;5.40;1.88;;;21.70;73.50;;;;;;5055140;28;20068;-62
2022/07/19 05:46:40;;;;;;;6.20;1.85;;;21.80;73.20;;;;;;5055172;28;20029;-62
2022/07/19 05:49:08;;;;;;;6.00;2.25;;;21.90;72.80;;;;;;5056357;28;20029;-63
2022/07/19 05:51:34;;;;;;;5.45;1.90;;;22.00;72.60;;;;;;5055892;28;20024;-63
2022/07/19 05:54:00;;;;;;;7.05;2.13;;;22.20;72.20;;;;;;5056585;28;20084;-63
2022/07/19 05:56:26;;;;;;;10.00;1.90;;;22.30;71.60;;;;;;5057580;28;20025;-64
2022/07/19 05:58:53;;;;;;;6.63;1.88;;;22.40;71.30;;;;;;5057643;28;20029;-63
2022/07/19 06:01:18;;;;;;;4.25;1.83;;;22.40;70.80;;;;;;5056643;28;20029;-63
2022/07/19 06:04:02;;;;;;;8.18;2.50;;;22.50;70.90;;;;;;5055992;28;20078;-61
2022/07/19 06:06:30;;;;;;;5.05;2.20;;;22.60;70.50;;;;;;5057490;28;20026;-62
2022/07/19 06:08:56;;;;;;;4.60;1.83;;;22.70;70.40;;;;;;5056128;28;20493;-62
2022/07/19 06:11:22;;;;;;;3.65;1.83;;;22.90;69.50;;;;;;5056120;28;20043;-63
2022/07/19 06:13:48;;;;;;;;;;;23.00;69.20;;;;;;5056530;28;20035;-63
2022/07/19 06:16:14;;;;;;;5.35;1.73;;;23.10;69.00;;;;;;5056253;28;19904;-63
2022/07/19 06:18:40;;;;;;;4.80;2.08;;;23.20;68.70;;;;;;5056567;28;20473;-63
2022/07/19 06:21:12;;;;;;;8.20;1.90;;;23.30;68.50;;;;;;5056924;28;20025;-63
2022/07/19 06:23:39;;;;;;;3.13;2.05;;;23.50;67.80;;;;;;5056092;28;20067;-63
2022/07/19 06:26:05;;;;;;;5.38;2.20;;;23.60;67.70;;;;;;5056703;28;20029;-63
2022/07/19 06:28:31;;;;;;;4.57;2.00;;;23.70;67.80;;;;;;5056986;28;20017;-62
2022/07/19 06:30:57;;;;;;;4.38;1.98;;;23.70;67.60;;;;;;5056871;28;20021;-63
2022/07/19 06:33:22;;;;;;;;;;;23.70;67.70;;;;;;5055950;28;20482;-64
2022/07/19 06:35:48;;;;;;;3.22;1.70;;;23.90;67.20;;;;;;5055104;28;20254;-62
2022/07/19 06:38:14;;;;;;;5.90;2.10;;;24.00;67.10;;;;;;5056770;28;20033;-62
2022/07/19 06:40:39;;;;;;;5.10;1.80;;;24.10;67.00;;;;;;5057205;28;20043;-63
2022/07/19 06:43:05;;;;;;;5.03;1.70;;;24.10;66.80;;;;;;5057207;28;20029;-64
2022/07/19 06:45:31;;;;;;;;;;;24.20;66.80;;;;;;5061949;28;20051;-64
2022/07/19 06:47:56;;;;;;;4.10;2.90;;;24.30;66.40;;;;;;5061223;28;19913;-63
2022/07/19 06:50:22;;;;;;;;;;;24.40;66.40;;;;;;5061786;28;20036;-63
2022/07/19 06:52:47;;;;;;;5.13;2.15;;;24.60;65.60;;;;;;5061143;28;19958;-63
2022/07/19 06:55:13;;;;;;;;;;;24.80;65.60;;;;;;5061975;28;20033;-63
2022/07/19 06:57:39;;;;;;;6.60;2.30;;;24.90;65.40;;;;;;5060350;28;19919;-63
2022/07/19 07:00:06;;;;;;;;;;;24.90;65.30;;;;;;5061121;28;20044;-63
2022/07/19 07:02:32;;;;;;;4.68;1.90;;;25.10;64.60;;;;;;5061261;28;19917;-64
2022/07/19 07:04:57;;;;;;;;;;;25.30;64.70;;;;;;5059122;28;20079;-61
2022/07/19 07:07:23;;;;;;;6.65;2.22;;;25.50;64.10;;;;;;5056734;28;19911;-60
2022/07/19 07:09:48;;;;;;;;;;;25.70;64.10;;;;;;5056760;28;20041;-60
2022/07/19 07:12:14;;;;;;;5.40;1.92;;;25.90;63.70;;;;;;5056262;28;19935;-60
2022/07/19 07:14:40;;;;;;;3.72;2.20;;;25.90;63.40;;;;;;5056855;28;20468;-61
2022/07/19 07:17:05;;;;;;;;;;;26.10;64.10;;;;;;5057055;28;20382;-58
2022/07/19 07:19:31;;;;;;;3.53;2.30;;;26.20;63.20;;;;;;5056187;28;19992;-59
2022/07/19 07:21:59;;;;;;;;;;;26.30;63.20;;;;;;5056728;28;20493;-59
2022/07/19 07:24:25;;;;;;;6.15;2.20;;;26.30;63.30;;;;;;5056341;28;20466;-60
2022/07/19 07:26:51;;;;;;;;;;;26.40;63.30;;;;;;5058082;28;20029;-60
2022/07/19 07:29:16;;;;;;;4.80;2.28;;;26.40;63.20;;;;;;5056776;28;20250;-61
2022/07/19 07:31:42;;;;;;;;;;;26.40;63.10;;;;;;5056857;28;20107;-59
2022/07/19 07:34:07;;;;;;;5.32;1.98;;;26.40;63.30;;;;;;5060449;28;19924;-63
2022/07/19 07:36:33;;;;;;;10.18;2.50;;;26.40;63.40;;;;;;5059749;28;20543;-61
2022/07/19 07:38:58;;;;;;;4.75;1.63;;;26.50;63.30;;;;;;5059887;28;20041;-63
2022/07/19 07:41:24;;;;;;;4.88;2.05;;;26.50;63.40;;;;;;5059973;28;20031;-63
2022/07/19 07:43:49;;;;;;;2.60;1.75;;;26.80;62.80;;;;;;5060872;28;20367;-63
2022/07/19 07:46:15;;;;;;;4.40;2.40;;;26.90;63.00;;;;;;5060449;28;20055;-64
2022/07/19 07:48:41;;;;;;;5.22;1.88;;;27.00;63.00;;;;;;5060854;28;20389;-63
2022/07/19 07:51:06;;;;;;;2.97;1.90;;;27.10;62.80;;;;;;5058651;28;20415;-61
2022/07/19 07:53:32;;;;;;;4.07;1.70;;;27.20;62.80;;;;;;5059082;28;20032;-62
2022/07/19 07:55:57;;;;;;;7.00;2.85;;;27.30;62.50;;;;;;5058220;28;20032;-63
2022/07/19 07:58:23;;;;;;;5.75;2.00;;;27.80;60.80;;;;;;5059554;28;20063;-62
2022/07/19 08:00:48;;;;;;;3.33;1.97;;;28.00;61.00;;;;;;5058819;28;20084;-62
2022/07/19 08:03:16;;;;;;;4.50;1.83;;;28.30;60.00;;;;;;5058782;28;20033;-63
2022/07/19 08:05:43;;;;;;;9.77;2.45;;;28.70;59.60;;;;;;5058619;28;20108;-62
2022/07/19 08:08:09;;;;;;;5.57;1.90;;;28.90;59.60;;;;;;5059449;28;20036;-64
2022/07/19 08:10:35;;;;;;;5.03;2.00;;;28.90;59.30;;;;;;5058792;28;20474;-64
2022/07/19 08:13:01;;;;;;;5.47;1.85;;;29.30;58.80;;;;;;5057971;28;20021;-62
2022/07/19 08:15:27;;;;;;;5.50;1.77;;;29.50;58.40;;;;;;5056710;28;20056;-62
2022/07/19 08:17:56;;;;;;;6.78;2.00;;;30.40;56.70;;;;;;5056712;28;20025;-65
2022/07/19 08:20:21;;;;;;;5.97;2.33;;;32.20;55.00;;;;;;5058465;28;20104;-63
2022/07/19 08:22:47;;;;;;;3.78;2.00;;;34.00;52.70;;;;;;5058933;28;20489;-64
2022/07/19 08:25:16;;;;;;;3.53;2.20;;;36.00;51.40;;;;;;5056213;28;20021;-62
2022/07/19 08:27:42;;;;;;;6.10;2.30;;;37.40;49.40;;;;;;5058759;28;20033;-64
2022/07/19 08:30:08;;;;;;;2.92;1.65;;;38.00;47.90;;;;;;5057294;28;20051;-63
2022/07/19 08:32:34;;;;;;;4.43;2.17;;;37.70;47.90;;;;;;5057659;28;20029;-63
2022/07/19 08:35:00;;;;;;;6.20;2.00;;;38.00;48.40;;;;;;5056693;28;20530;-63
2022/07/19 08:37:25;;;;;;;3.58;1.90;;;38.70;46.90;;;;;;5056541;28;20025;-63
2022/07/19 08:39:51;;;;;;;7.38;5.65;;;39.60;46.70;;;;;;5056609;28;20056;-63
2022/07/19 08:42:20;;;;;;;3.20;1.70;;;41.30;45.10;;;;;;5056821;28;20108;-64
2022/07/19 08:44:54;;;;;;;4.88;4.38;;;41.40;44.20;;;;;;5056578;28;20040;-64
2022/07/19 08:47:20;;;;;;;6.93;2.25;;;42.60;43.50;;;;;;5056905;28;20017;-64
2022/07/19 08:49:46;;;;;;;3.35;1.85;;;42.20;43.10;;;;;;5055424;28;20017;-64
2022/07/19 08:52:13;;;;;;;4.80;2.10;;;41.40;43.80;;;;;;5056523;28;20465;-64
2022/07/19 08:54:39;;;;;;;5.65;2.13;;;41.30;43.60;;;;;;5054428;28;20087;-64
2022/07/19 08:59:49;;;;;;;5.45;2.22;;;42.10;42.70;;;;;;5056780;28;20090;-63
2022/07/19 09:02:15;;;;;;;5.88;2.35;;;42.20;42.50;;;;;;5056014;28;20033;-63
2022/07/19 09:04:41;;;;;;;6.50;2.00;;;42.30;42.60;;;;;;5056338;28;20490;-62
2022/07/19 09:07:06;;;;;;;5.22;2.05;;;42.30;42.50;;;;;;5055805;28;20025;-64
2022/07/19 09:09:34;;;;;;;4.05;2.00;;;43.60;42.00;;;;;;5056213;28;20070;-64
2022/07/19 09:12:01;;;;;;;5.10;2.10;;;44.60;42.00;;;;;;5056979;28;20115;-63
2022/07/19 09:14:29;;;;;;;3.35;1.85;;;45.00;42.10;;;;;;5056779;28;20051;-63
2022/07/19 09:17:04;;;;;;;3.75;2.00;;;45.80;41.00;;;;;;5056418;28;20040;-64
2022/07/19 09:19:35;;;;;;;3.30;1.92;;;44.30;40.90;;;;;;5054941;28;20029;-63
2022/07/19 09:22:18;;;;;;;6.68;2.22;;;43.60;41.40;;;;;;5053851;28;20021;-63
2022/07/19 09:24:49;;;;;;;4.75;1.98;;;43.50;41.70;;;;;;5056552;28;20070;-63
2022/07/19 09:27:27;;;;;;;4.07;2.30;;;44.50;41.40;;;;;;5056135;28;20021;-63
2022/07/19 09:29:54;;;;;;;5.43;1.80;;;45.90;40.30;;;;;;5055887;28;20047;-63
2022/07/19 09:32:23;;;;;;;3.08;1.90;;;45.80;38.50;;;;;;5055432;28;20036;-64
2022/07/19 09:34:54;;;;;;;6.95;2.55;;;45.50;38.30;;;;;;5055857;28;20374;-62
2022/07/19 09:37:20;;;;;;;4.32;1.90;;;45.30;39.20;;;;;;5056305;28;20040;-63
2022/07/19 09:39:48;;;;;;;11.02;2.50;;;44.50;39.60;;;;;;5056661;28;20025;-63
2022/07/19 09:42:20;;;;;;;4.40;2.20;;;45.50;39.30;;;;;;5055932;28;20021;-64
2022/07/19 09:44:46;;;;;;;6.05;2.30;;;46.40;39.60;;;;;;5055904;28;20035;-64
2022/07/19 09:47:13;;;;;;;4.53;2.40;;;47.10;39.30;;;;;;5055974;28;20059;-64
2022/07/19 09:49:38;;;;;;;4.85;2.13;;;45.10;39.60;;;;;;5053920;28;20025;-65
2022/07/19 09:52:04;;;;;;;4.93;2.47;;;44.30;40.20;;;;;;5055431;28;20039;-63
2022/07/19 09:54:31;;;;;;;6.15;2.25;;;42.60;40.20;;;;;;5056043;28;20021;-63
2022/07/19 09:56:58;;;;;;;4.43;2.15;;;42.60;40.70;;;;;;5054836;28;20496;-63
2022/07/19 09:59:25;;;;;;;5.68;2.30;;;43.80;39.80;;;;;;5054558;28;20048;-64
2022/07/19 10:01:53;;;;;;;4.55;1.92;;;44.60;39.90;;;;;;5055825;28;20033;-63
2022/07/19 10:04:21;;;;;;;2.72;2.00;;;45.40;39.50;;;;;;5055485;28;20442;-62
2022/07/19 10:06:48;;;;;;;4.60;2.00;;;46.00;39.40;;;;;;5055190;28;20025;-63
2022/07/19 10:09:16;;;;;;;5.25;1.98;;;43.80;38.90;;;;;;5056236;28;20066;-63
2022/07/19 10:11:43;;;;;;;4.53;2.08;;;43.00;39.80;;;;;;5055522;28;20067;-62
2022/07/19 10:14:09;;;;;;;3.38;1.90;;;43.50;40.00;;;;;;5055168;28;20025;-63
2022/07/19 10:16:37;;;;;;;8.07;2.33;;;44.10;39.80;;;;;;5055264;28;20031;-64
2022/07/19 10:19:16;;;;;;;4.97;2.25;;;45.40;39.40;;;;;;5054181;28;20029;-64
2022/07/19 10:21:43;;;;;;;5.57;2.35;;;46.80;39.10;;;;;;5055950;28;20029;-63
2022/07/19 10:24:09;;;;;;;6.55;2.72;;;46.00;39.10;;;;;;5054731;28;20017;-64
2022/07/19 10:26:40;;;;;;;5.88;2.40;;;47.00;38.70;;;;;;5056673;28;20355;-63
2022/07/19 10:29:16;;;;;;;2.45;2.20;;;48.00;38.10;;;;;;5056474;28;20081;-64
2022/07/19 10:31:43;;;;;;;4.60;2.10;;;47.20;37.90;;;;;;5056059;28;20063;-63
2022/07/19 10:34:20;;;;;;;4.50;2.28;;;44.50;38.60;;;;;;5056294;28;20029;-63
2022/07/19 10:36:47;;;;;;;3.55;1.90;;;44.60;39.20;;;;;;5056039;28;20025;-64
2022/07/19 10:39:19;;;;;;;2.95;1.73;;;43.60;39.20;;;;;;5057476;28;20082;-63
2022/07/19 10:42:20;;;;;;;3.30;2.10;;;43.60;39.30;;;;;;5056661;28;20017;-62
2022/07/19 10:44:59;;;;;;;7.57;1.90;;;44.60;38.30;;;;;;5056693;28;20021;-63
2022/07/19 10:47:37;;;;;;;5.30;2.13;;;42.70;38.50;;;;;;5056393;28;20117;-62
2022/07/19 10:50:14;;;;;;;6.13;2.05;;;41.80;39.40;;;;;;5056094;28;20037;-62
2022/07/19 10:52:42;;;;;;;3.75;1.75;;;41.00;39.60;;;;;;5056577;28;20025;-63
2022/07/19 10:55:27;;;;;;;3.42;2.25;;;40.90;39.60;;;;;;5056402;28;20379;-64
2022/07/19 10:57:59;;;;;;;8.73;1.88;;;40.30;39.60;;;;;;5056641;28;20025;-62
2022/07/19 11:00:32;;;;;;;2.80;2.15;;;40.20;39.20;;;;;;5054308;28;20359;-63
2022/07/19 11:03:20;;;;;;;6.03;2.05;;;39.30;40.00;;;;;;5053686;28;20044;-63
2022/07/19 11:06:01;;;;;;;7.63;1.92;;;39.30;40.20;;;;;;5054736;28;20049;-64
2022/07/19 11:08:42;;;;;;;4.07;1.70;;;39.80;40.10;;;;;;5053254;28;20485;-62
2022/07/19 11:11:17;;;;;;;5.85;2.00;;;39.60;40.00;;;;;;5054093;28;20033;-63
2022/07/19 11:13:45;;;;;;;3.87;1.70;;;39.20;40.20;;;;;;5054237;28;20070;-63
2022/07/19 11:16:10;;;;;;;8.45;1.98;;;38.90;40.30;;;;;;5054298;28;20032;-62
2022/07/19 11:18:36;;;;;;;4.53;1.70;;;38.20;40.90;;;;;;5053594;28;20025;-62
2022/07/19 11:21:04;;;;;;;5.13;1.90;;;37.90;41.40;;;;;;5054233;28;20059;-63
2022/07/19 11:23:32;;;;;;;5.95;2.00;;;37.30;41.80;;;;;;5052812;28;20029;-61
2022/07/19 11:26:14;;;;;;;4.25;1.75;;;37.00;42.00;;;;;;5052724;28;20028;-63
2022/07/19 11:28:42;;;;;;;6.07;1.70;;;36.40;42.30;;;;;;5053112;28;20025;-65
2022/07/19 11:31:17;;;;;;;5.38;1.80;;;36.10;42.70;;;;;;5056146;28;20397;-63
2022/07/19 11:33:44;;;;;;;7.03;2.10;;;36.00;42.50;;;;;;5055170;28;20033;-62
2022/07/19 11:36:10;;;;;;;9.77;2.05;;;36.00;42.70;;;;;;5056433;28;20021;-63
2022/07/19 11:38:45;;;;;;;3.90;1.80;;;35.90;42.50;;;;;;5055857;28;20028;-61
2022/07/19 11:41:23;;;;;;;4.68;1.80;;;35.60;42.80;;;;;;5056476;28;20025;-61
2022/07/19 11:43:58;;;;;;;4.28;2.13;;;35.50;43.10;;;;;;5056240;28;20028;-61
2022/07/19 11:46:31;;;;;;;4.13;1.70;;;35.50;43.60;;;;;;5055232;28;20067;-63
2022/07/19 11:49:01;;;;;;;2.10;1.73;;;35.50;43.30;;;;;;5056351;28;20029;-61
2022/07/19 11:51:27;;;;;;;3.97;1.85;;;35.50;43.20;;;;;;5056879;28;20040;-62
2022/07/19 11:53:56;;;;;;;10.25;1.90;;;35.50;43.10;;;;;;5055060;28;20021;-62
2022/07/19 11:56:27;;;;;;;6.95;2.60;;;35.30;43.10;;;;;;5056147;28;20112;-62
2022/07/19 11:58:55;;;;;;;5.00;1.75;;;35.20;43.20;;;;;;5056627;28;20052;-63
2022/07/19 12:01:28;;;;;;;2.10;1.80;;;35.30;42.90;;;;;;5056453;28;20021;-63
2022/07/19 12:04:05;;;;;;;2.63;1.73;;;35.50;42.20;;;;;;5056948;28;20032;-63
2022/07/19 12:06:35;;;;;;;2.55;1.70;;;35.50;42.20;;;;;;5056032;28;20100;-62
2022/07/19 12:09:05;;;;;;;8.40;2.33;;;35.50;42.80;;;;;;5055085;28;20017;-62
2022/07/19 12:11:41;;;;;;;3.05;2.17;;;35.50;42.40;;;;;;5056222;28;20025;-60
2022/07/19 12:14:31;;;;;;;3.45;2.00;;;35.50;42.00;;;;;;5055492;28;20033;-62
2022/07/19 12:17:17;;;;;;;5.00;1.92;;;35.60;42.40;;;;;;5054586;28;20386;-60
2022/07/19 12:19:48;;;;;;;4.03;2.10;;;35.70;42.10;;;;;;5054331;28;20047;-62
2022/07/19 12:22:34;;;;;;;2.97;1.88;;;35.50;41.90;;;;;;5053468;28;20051;-63
2022/07/19 12:24:59;;;;;;;3.08;1.83;;;35.50;42.30;;;;;;5053892;28;20087;-63
2022/07/19 12:27:27;;;;;;;6.68;2.15;;;35.50;42.50;;;;;;5053524;28;20060;-63
2022/07/19 12:29:54;;;;;;;3.80;1.90;;;35.60;42.70;;;;;;5053372;28;20021;-61
2022/07/19 12:32:47;;;;;;;4.47;1.70;;;35.70;42.60;;;;;;4990086;28;1831840;-61
2022/07/19 12:35:14;;;;;;;4.07;1.90;;;35.70;42.30;;;;;;5051937;28;20036;-62
2022/07/19 12:37:45;;;;;;;8.52;2.03;;;35.70;42.30;;;;;;5055145;28;20036;-62
2022/07/19 12:40:22;;;;;;;3.20;2.05;;;35.70;42.10;;;;;;5054799;28;20155;-62
2022/07/19 12:43:03;;;;;;;6.00;2.22;;;35.80;42.00;;;;;;5054471;28;20123;-64
2022/07/19 12:45:31;;;;;;;4.18;1.90;;;35.70;42.10;;;;;;5054803;28;20021;-60
2022/07/19 12:47:58;;;;;;;4.40;2.20;;;35.70;42.10;;;;;;5054585;28;20028;-59
2022/07/19 12:50:27;;;;;;;3.85;2.30;;;35.80;41.90;;;;;;5054484;28;20176;-61
2022/07/19 12:52:54;;;;;;;8.63;3.92;;;35.70;41.80;;;;;;5054199;28;20083;-62
2022/07/19 12:55:22;;;;;;;9.90;2.03;;;35.80;41.90;;;;;;5054722;28;20402;-60
2022/07/19 12:57:49;;;;;;;6.43;2.25;;;35.80;41.70;;;;;;5054544;28;20138;-60